Time;durP1;ratioP1;P1;durP2;ratioP2;P2;SDS_P1;SDS_P2;PMS_P1;PMS_P2;Temp;Humidity;BMP_temperature;BMP_pressure;BME280_temperature;BME280_humidity;BME280_pressure;Samples;Min_cycle;Max_cycle;Signal;HPM_P1;HPM_P2
2023/09/05 00:01:15;;;;;;;4.38;2.95;;;;;;;;;;4979151;28;20044;-92
2023/09/05 00:03:45;;;;;;;6.05;3.00;;;;;;;;;;4979063;28;20023;-94
2023/09/05 00:06:11;;;;;;;4.40;2.88;;;;;;;;;;4979513;28;20053;-92
2023/09/05 00:08:42;;;;;;;3.88;2.63;;;;;;;;;;4979185;28;20034;-93
2023/09/05 00:11:14;;;;;;;6.40;3.38;;;;;;;;;;4978214;28;20049;-94
2023/09/05 00:13:45;;;;;;;;;;;;;;;;;;4978558;28;20041;-93
2023/09/05 00:16:14;;;;;;;5.32;3.22;;;;;;;;;;4977879;28;20247;-93
2023/09/05 00:18:54;;;;;;;4.43;2.75;;;;;;;;;;4978354;28;20038;-92
2023/09/05 00:21:28;;;;;;;3.33;2.72;;;;;;;;;;4977910;28;20027;-93
2023/09/05 00:27:15;;;;;;;3.63;2.88;;;;;;;;;;4979133;28;20073;-93
2023/09/05 00:29:42;;;;;;;5.60;2.63;;;;;;;;;;4977663;28;20038;-93
2023/09/05 00:32:09;;;;;;;5.65;2.92;;;;;;;;;;4978077;28;20026;-93
2023/09/05 00:34:39;;;;;;;4.47;2.80;;;;;;;;;;4977895;28;20026;-93
2023/09/05 00:37:10;;;;;;;5.07;3.05;;;;;;;;;;4978994;28;20126;-93
2023/09/05 00:42:27;;;;;;;3.22;2.65;;;;;;;;;;4978578;28;19954;-93
2023/09/05 00:45:11;;;;;;;5.05;3.70;;;;;;;;;;4978580;28;20054;-93
2023/09/05 00:47:39;;;;;;;4.50;3.13;;;;;;;;;;4978561;28;20329;-93
2023/09/05 00:50:07;;;;;;;3.85;3.05;;;;;;;;;;4977779;28;20026;-94
2023/09/05 00:52:33;;;;;;;5.97;2.78;;;;;;;;;;4978433;28;20425;-92
2023/09/05 00:55:00;;;;;;;5.68;3.22;;;;;;;;;;4978771;28;20058;-92
2023/09/05 00:57:27;;;;;;;4.95;2.90;;;;;;;;;;4977645;28;20133;-91
2023/09/05 00:59:53;;;;;;;3.67;2.95;;;;;;;;;;4982862;28;20051;-92
2023/09/05 01:02:19;;;;;;;5.35;3.10;;;;;;;;;;4981687;28;20031;-92
2023/09/05 01:04:45;;;;;;;4.78;2.83;;;;;;;;;;4982500;28;20027;-92
2023/09/05 01:13:11;;;;;;;3.35;2.80;;;;;;;;;;4982486;28;20034;-92
2023/09/05 01:15:37;;;;;;;3.95;3.00;;;;;;;;;;4982226;28;20105;-92
2023/09/05 01:18:04;;;;;;;3.83;3.20;;;;;;;;;;4982087;28;20030;-91
2023/09/05 01:20:46;;;;;;;4.82;3.50;;;;;;;;;;4982048;28;20027;-92
2023/09/05 01:23:16;;;;;;;4.25;3.25;;;;;;;;;;4982040;28;20031;-92
2023/09/05 01:25:42;;;;;;;6.70;3.28;;;;;;;;;;4981229;28;20031;-92
2023/09/05 01:28:11;;;;;;;5.85;2.85;;;;;;;;;;4981755;28;20421;-92
2023/09/05 01:30:39;;;;;;;3.40;2.67;;;;;;;;;;4982239;28;20031;-91
2023/09/05 01:33:06;;;;;;;3.13;2.70;;;;;;;;;;4980934;28;20043;-92
2023/09/05 01:35:32;;;;;;;3.55;3.13;;;;;;;;;;4981672;28;20109;-92
2023/09/05 01:41:01;;;;;;;4.20;3.17;;;;;;;;;;4982123;28;20113;-92
2023/09/05 01:43:27;;;;;;;7.22;3.03;;;;;;;;;;4980978;28;20340;-92
2023/09/05 01:45:53;;;;;;;3.58;2.92;;;;;;;;;;4981975;28;20030;-92
2023/09/05 01:51:31;;;;;;;;;;;;;;;;;;;;;
2023/09/05 02:00:22;;;;;;;4.03;2.92;;;;;;;;;;4981534;28;20026;-93
2023/09/05 02:03:10;;;;;;;4.75;3.28;;;;;;;;;;4981853;28;20022;-94
2023/09/05 02:05:36;;;;;;;5.38;3.25;;;;;;;;;;4980651;28;20058;-93
2023/09/05 02:11:09;;;;;;;3.88;3.42;;;;;;;;;;4974808;28;20081;-94
2023/09/05 02:13:35;;;;;;;5.07;3.45;;;;;;;;;;4981603;28;20046;-93
2023/09/05 02:16:01;;;;;;;5.65;4.20;;;;;;;;;;4980465;28;20038;-93
2023/09/05 02:18:30;;;;;;;4.55;3.40;;;;;;;;;;4980195;28;20325;-93
2023/09/05 02:21:03;;;;;;;5.45;2.95;;;;;;;;;;4979730;28;20030;-92
2023/09/05 02:26:32;;;;;;;4.68;3.33;;;;;;;;;;4981328;28;20049;-94
2023/09/05 02:28:58;;;;;;;6.60;3.53;;;;;;;;;;4981026;28;20027;-94
2023/09/05 02:31:24;;;;;;;4.05;3.38;;;;;;;;;;4980598;28;20041;-92
2023/09/05 02:33:50;;;;;;;5.30;3.33;;;;;;;;;;4979875;28;20026;-93
2023/09/05 02:36:20;;;;;;;8.07;3.33;;;;;;;;;;4981006;28;20031;-93
2023/09/05 02:38:47;;;;;;;7.68;3.45;;;;;;;;;;4979938;28;20027;-93
2023/09/05 02:41:13;;;;;;;3.90;3.28;;;;;;;;;;4979444;28;20022;-94
2023/09/05 02:43:40;;;;;;;4.80;3.40;;;;;;;;;;4980505;28;20064;-93
2023/09/05 02:46:06;;;;;;;4.47;3.60;;;;;;;;;;4980704;28;20038;-94
2023/09/05 02:48:33;;;;;;;4.55;3.28;;;;;;;;;;4980833;28;20110;-93
2023/09/05 02:51:03;;;;;;;8.85;3.70;;;;;;;;;;4980461;28;20027;-93
2023/09/05 02:53:31;;;;;;;4.47;3.35;;;;;;;;;;4979959;28;20042;-88
2023/09/05 02:56:00;;;;;;;4.70;3.20;;;;;;;;;;4979370;28;20030;-93
2023/09/05 02:58:27;;;;;;;4.47;3.30;;;;;;;;;;4979139;28;20026;-93
2023/09/05 03:01:09;;;;;;;4.22;3.17;;;;;;;;;;4980313;28;20053;-92
2023/09/05 03:03:35;;;;;;;7.22;3.50;;;;;;;;;;4980027;28;20069;-93
2023/09/05 03:06:10;;;;;;;4.93;3.75;;;;;;;;;;4979104;28;20154;-93
2023/09/05 03:08:37;;;;;;;4.60;3.63;;;;;;;;;;4980311;28;20026;-93
2023/09/05 03:11:21;;;;;;;3.67;3.28;;;;;;;;;;4980160;28;20033;-93
2023/09/05 03:13:47;;;;;;;4.07;3.38;;;;;;;;;;4979628;28;20451;-92
2023/09/05 03:16:17;;;;;;;5.13;4.30;;;;;;;;;;4979350;28;20406;-94
2023/09/05 03:18:46;;;;;;;6.03;3.67;;;;;;;;;;4980317;28;20033;-93
2023/09/05 03:21:19;;;;;;;4.70;3.30;;;;;;;;;;4978796;28;20023;-92
2023/09/05 03:26:49;;;;;;;6.05;3.35;;;;;;;;;;4980020;28;20077;-94
2023/09/05 03:29:15;;;;;;;4.32;3.85;;;;;;;;;;4978596;28;20042;-93
2023/09/05 03:31:42;;;;;;;4.78;3.78;;;;;;;;;;4979975;28;20021;-93
2023/09/05 03:34:09;;;;;;;4.82;3.65;;;;;;;;;;4979091;28;20023;-92
2023/09/05 03:36:35;;;;;;;4.95;3.80;;;;;;;;;;4979809;28;20027;-93
2023/09/05 03:39:02;;;;;;;5.15;3.45;;;;;;;;;;4978597;28;20031;-94
2023/09/05 03:44:16;;;;;;;4.57;3.90;;;;;;;;;;5041603;23;20062;-93
2023/09/05 03:46:48;;;;;;;4.88;3.78;;;;;;;;;;4979439;28;20027;-94
2023/09/05 03:49:24;;;;;;;5.55;4.20;;;;;;;;;;4979456;28;20026;-94
2023/09/05 03:51:57;;;;;;;9.02;3.92;;;;;;;;;;4959466;28;20031;-95
2023/09/05 04:00:45;;;;;;;5.70;3.92;;;;;;;;;;4970188;28;20034;-93
2023/09/05 04:03:14;;;;;;;7.10;4.00;;;;;;;;;;4979276;28;20030;-93
2023/09/05 04:05:43;;;;;;;6.95;3.92;;;;;;;;;;4978694;28;20054;-93
2023/09/05 04:11:15;;;;;;;6.88;4.13;;;;;;;;;;4979234;28;20049;-94
2023/09/05 04:13:44;;;;;;;4.25;3.25;;;;;;;;;;4978552;28;20322;-93
2023/09/05 04:16:12;;;;;;;7.28;4.32;;;;;;;;;;4978997;28;20034;-94
2023/09/05 04:18:38;;;;;;;8.93;4.43;;;;;;;;;;4978613;28;20030;-93
2023/09/05 04:21:05;;;;;;;4.20;3.80;;;;;;;;;;4978364;28;20030;-93
2023/09/05 04:26:34;;;;;;;10.75;3.80;;;;;;;;;;4979074;28;20037;-93
2023/09/05 04:29:01;;;;;;;6.75;4.00;;;;;;;;;;4979029;28;20023;-93
2023/09/05 04:31:30;;;;;;;6.90;3.85;;;;;;;;;;4977471;28;20031;-94
2023/09/05 04:34:16;;;;;;;5.93;3.95;;;;;;;;;;4978543;28;20057;-93
2023/09/05 04:36:47;;;;;;;4.95;3.60;;;;;;;;;;4978438;28;20409;-94
2023/09/05 04:39:34;;;;;;;6.00;4.53;;;;;;;;;;4977959;28;20031;-95
2023/09/05 04:42:28;;;;;;;5.60;3.55;;;;;;;;;;4959612;28;20032;-94
2023/09/05 04:45:17;;;;;;;6.28;3.88;;;;;;;;;;4977898;28;20054;-94
2023/09/05 05:27:52;;;;;;;6.93;4.20;;;;;;;;;;6142105;23;19927;31
2023/09/05 05:30:18;;;;;;;6.10;3.80;;;;;;;;;;4956474;29;20130;-94
2023/09/05 05:32:46;;;;;;;7.22;4.00;;;;;;;;;;4948165;29;20028;-94
2023/09/05 05:35:12;;;;;;;7.55;4.28;;;;;;;;;;4938870;29;20325;-93
2023/09/05 05:37:38;;;;;;;6.50;3.67;;;;;;;;;;4940077;29;20028;-94
2023/09/05 05:46:12;;;;;;;5.05;4.10;;;;;;;;;;4962469;29;20472;-94
2023/09/05 05:48:38;;;;;;;5.63;4.30;;;;;;;;;;4962643;28;20031;-94
2023/09/05 05:51:04;;;;;;;5.82;3.63;;;;;;;;;;4961634;29;20409;-94
2023/09/05 05:53:32;;;;;;;4.32;3.75;;;;;;;;;;4945771;29;20410;-93
2023/09/05 05:55:58;;;;;;;5.07;3.67;;;;;;;;;;4954027;29;20031;-95
2023/09/05 05:58:24;;;;;;;4.53;3.42;;;;;;;;;;4962094;29;20035;-92
2023/09/05 06:01:08;;;;;;;5.65;3.95;;;;;;;;;;4962464;29;20035;-95
2023/09/05 06:03:37;;;;;;;4.10;3.42;;;;;;;;;;4961172;29;20046;-93
2023/09/05 06:06:05;;;;;;;9.18;3.75;;;;;;;;;;4956407;28;20051;-93
2023/09/05 06:11:35;;;;;;;4.47;3.20;;;;;;;;;;4961304;29;20434;-94
2023/09/05 06:14:17;;;;;;;4.97;3.55;;;;;;;;;;4962142;29;20361;-94
2023/09/05 06:16:49;;;;;;;5.30;3.28;;;;;;;;;;4961024;28;20027;-92
2023/09/05 06:19:17;;;;;;;6.63;3.85;;;;;;;;;;4960791;28;20031;-94
2023/09/05 06:21:45;;;;;;;4.60;3.50;;;;;;;;;;4942063;29;20036;-93
2023/09/05 06:27:15;;;;;;;4.65;3.55;;;;;;;;;;4942850;29;20043;-92
2023/09/05 06:29:41;;;;;;;4.60;3.45;;;;;;;;;;4941352;29;20056;-92
2023/09/05 06:32:07;;;;;;;3.90;3.45;;;;;;;;;;4942635;29;20027;-94
2023/09/05 06:34:33;;;;;;;5.40;3.65;;;;;;;;;;4941776;29;20030;-93
2023/09/05 06:37:02;;;;;;;8.45;3.92;;;;;;;;;;4941358;29;20111;-93
2023/09/05 06:53:18;;;;;;;4.60;3.13;;;;;;;;;;4961446;28;20149;-91
2023/09/05 06:56:02;;;;;;;7.78;3.53;;;;;;;;;;4973142;28;20055;-90
2023/09/05 06:58:29;;;;;;;4.90;3.05;;;;;;;;;;4960873;29;20083;-89
2023/09/05 07:00:55;;;;;;;4.25;3.25;;;;;;;;;;4960517;29;20031;-93
2023/09/05 07:03:27;;;;;;;5.07;3.17;;;;;;;;;;4952102;29;20031;-93
2023/09/05 07:05:54;;;;;;;5.15;3.00;;;;;;;;;;4940897;29;20020;-93
2023/09/05 07:08:23;;;;;;;5.05;3.15;;;;;;;;;;4957803;29;20035;-94
2023/09/05 07:10:49;;;;;;;4.13;3.08;;;;;;;;;;4960851;29;20031;-92
2023/09/05 07:13:16;;;;;;;4.88;3.38;;;;;;;;;;4945816;29;20323;-89
2023/09/05 07:15:43;;;;;;;5.75;3.10;;;;;;;;;;4940735;29;20118;-89
2023/09/05 07:18:10;;;;;;;5.32;3.05;;;;;;;;;;4940032;29;20030;-76
2023/09/05 07:20:36;;;;;;;3.63;3.20;;;;;;;;;;4942424;29;20026;-76
2023/09/05 07:23:02;;;;;;;4.57;3.25;;;;;;;;;;4959694;29;20098;-76
2023/09/05 07:25:29;;;;;;;4.93;2.80;;;;;;;;;;4959696;29;20020;-75
2023/09/05 07:27:55;;;;;;;4.72;3.08;;;;;;;;;;4959376;29;20035;-75
2023/09/05 07:30:21;;;;;;;6.35;2.53;;;;;;;;;;4959058;29;20074;-75
2023/09/05 07:32:47;;;;;;;5.97;2.78;;;;;;;;;;4950655;29;20049;-75
2023/09/05 07:35:13;;;;;;;5.00;3.22;;;;;;;;;;4960021;28;20475;-75
2023/09/05 07:37:41;;;;;;;3.42;2.67;;;;;;;;;;4959728;28;20027;-75
2023/09/05 07:40:07;;;;;;;3.65;2.95;;;;;;;;;;4959685;28;20027;-75
2023/09/05 07:42:33;;;;;;;4.43;2.90;;;;;;;;;;4951781;28;20330;-75
2023/09/05 07:45:01;;;;;;;7.20;3.10;;;;;;;;;;4968490;28;20475;-75
2023/09/05 07:47:27;;;;;;;4.10;3.40;;;;;;;;;;4971148;28;20322;-75
2023/09/05 07:49:53;;;;;;;4.03;2.88;;;;;;;;;;4958237;29;20035;-75
2023/09/05 07:52:19;;;;;;;4.28;2.92;;;;;;;;;;4959256;28;20082;-75
2023/09/05 07:54:45;;;;;;;4.43;2.75;;;;;;;;;;4959561;28;20039;-75
2023/09/05 07:57:11;;;;;;;4.80;3.05;;;;;;;;;;4959253;28;20031;-75
2023/09/05 07:59:37;;;;;;;3.42;2.70;;;;;;;;;;4965019;28;20098;-75
2023/09/05 08:02:05;;;;;;;4.28;2.80;;;;;;;;;;4968158;28;20050;-75
2023/09/05 08:04:37;;;;;;;4.60;2.70;;;;;;;;;;4958801;29;20020;-75
2023/09/05 08:07:03;;;;;;;3.83;2.95;;;;;;;;;;4962721;28;20113;-75
2023/09/05 08:09:29;;;;;;;3.15;2.47;;;;;;;;;;4973563;28;20035;-75
2023/09/05 08:11:55;;;;;;;6.43;2.60;;;;;;;;;;4960665;29;20350;-77
2023/09/05 08:14:21;;;;;;;6.65;3.20;;;;;;;;;;4961388;28;20361;-77
2023/09/05 08:16:49;;;;;;;5.47;2.60;;;;;;;;;;4959202;29;20074;-77
2023/09/05 08:19:15;;;;;;;4.80;2.75;;;;;;;;;;4957911;29;20062;-77
2023/09/05 08:21:41;;;;;;;7.35;2.80;;;;;;;;;;4958784;29;20027;-77
2023/09/05 08:24:09;;;;;;;4.45;2.63;;;;;;;;;;4959094;29;20028;-77
2023/09/05 08:26:36;;;;;;;6.43;2.72;;;;;;;;;;4947047;28;20023;-77
2023/09/05 08:29:03;;;;;;;3.35;2.33;;;;;;;;;;4963051;28;20042;-77
2023/09/05 08:31:30;;;;;;;4.68;2.38;;;;;;;;;;4978165;28;20038;-77
2023/09/05 08:33:57;;;;;;;2.47;2.28;;;;;;;;;;4964630;28;20067;-80
2023/09/05 08:36:23;;;;;;;3.63;2.38;;;;;;;;;;4958368;28;20034;-83
2023/09/05 08:38:49;;;;;;;4.57;2.05;;;;;;;;;;4959118;29;20035;-83
2023/09/05 08:41:15;;;;;;;3.30;2.20;;;;;;;;;;4958866;29;20035;-84
2023/09/05 08:43:41;;;;;;;3.78;2.15;;;;;;;;;;4959063;29;20325;-83
2023/09/05 08:46:09;;;;;;;4.93;2.20;;;;;;;;;;4957983;28;20110;-88
2023/09/05 08:48:35;;;;;;;2.38;2.10;;;;;;;;;;4959584;29;20031;-88
2023/09/05 08:51:04;;;;;;;4.32;2.20;;;;;;;;;;4959237;29;20035;-85
2023/09/05 08:53:31;;;;;;;4.70;2.05;;;;;;;;;;4957110;29;20410;-86
2023/09/05 08:56:16;;;;;;;3.28;2.15;;;;;;;;;;4939143;29;20131;-86
2023/09/05 08:58:42;;;;;;;12.25;2.40;;;;;;;;;;4939048;29;20115;-86
2023/09/05 09:01:08;;;;;;;3.13;2.03;;;;;;;;;;4959015;29;20074;-85
2023/09/05 09:03:35;;;;;;;2.15;1.92;;;;;;;;;;4968471;28;20041;-85
2023/09/05 09:06:01;;;;;;;4.50;1.73;;;;;;;;;;4965788;28;20106;-86
2023/09/05 09:08:37;;;;;;;2.10;1.90;;;;;;;;;;4957166;28;20027;-85
2023/09/05 09:11:05;;;;;;;3.00;2.13;;;;;;;;;;4957864;28;20078;-86
2023/09/05 09:13:31;;;;;;;3.20;1.77;;;;;;;;;;4958998;28;20019;-86
2023/09/05 09:15:58;;;;;;;2.95;2.00;;;;;;;;;;4957941;28;20067;-86
2023/09/05 09:18:26;;;;;;;4.35;1.80;;;;;;;;;;4958148;28;20023;-85
2023/09/05 09:20:54;;;;;;;4.75;2.00;;;;;;;;;;4962681;28;20382;-85
2023/09/05 09:23:27;;;;;;;5.72;1.80;;;;;;;;;;4962604;29;20035;-86
2023/09/05 09:25:54;;;;;;;5.00;2.45;;;;;;;;;;4962599;29;20031;-86
2023/09/05 09:28:25;;;;;;;4.63;1.80;;;;;;;;;;4961758;28;20425;-85
2023/09/05 09:31:05;;;;;;;3.35;1.98;;;;;;;;;;4961566;29;20039;-86
2023/09/05 09:33:32;;;;;;;2.00;1.80;;;;;;;;;;4962038;28;20110;-85
2023/09/05 09:36:01;;;;;;;5.82;2.15;;;;;;;;;;4955310;29;20035;-86
2023/09/05 09:38:28;;;;;;;2.20;1.85;;;;;;;;;;4959901;29;20078;-85
2023/09/05 09:40:57;;;;;;;2.33;2.03;;;;;;;;;;4960312;28;20461;-86
2023/09/05 09:43:25;;;;;;;2.58;1.83;;;;;;;;;;4962271;29;20029;-86
2023/09/05 09:45:51;;;;;;;4.53;2.10;;;;;;;;;;4962318;29;20061;-86
2023/09/05 09:48:19;;;;;;;4.35;1.95;;;;;;;;;;4961251;29;20039;-86
2023/09/05 09:51:13;;;;;;;3.55;1.77;;;;;;;;;;4962101;29;20039;-85
2023/09/05 09:53:40;;;;;;;4.32;2.13;;;;;;;;;;4961351;28;20126;-93
2023/09/05 09:56:10;;;;;;;3.22;1.77;;;;;;;;;;4958308;28;20081;-91
2023/09/05 09:58:37;;;;;;;2.97;1.52;;;;;;;;;;4961573;28;20031;-89
2023/09/05 10:01:04;;;;;;;1.60;1.48;;;;;;;;;;4961093;29;20058;-90
2023/09/05 10:03:30;;;;;;;3.03;1.70;;;;;;;;;;4962088;29;20126;-91
2023/09/05 10:05:57;;;;;;;3.38;1.92;;;;;;;;;;4961841;28;20402;-91
2023/09/05 10:08:24;;;;;;;2.67;1.60;;;;;;;;;;4961025;28;20041;-91
2023/09/05 10:14:07;;;;;;;3.28;1.42;;;;;;;;;;4962069;29;20046;-91
2023/09/05 10:16:34;;;;;;;6.05;1.83;;;;;;;;;;4960509;29;20035;-90
2023/09/05 10:19:00;;;;;;;4.18;1.98;;;;;;;;;;4962135;29;20437;-91
2023/09/05 10:21:27;;;;;;;2.25;1.70;;;;;;;;;;4960356;28;20071;-76
2023/09/05 10:23:53;;;;;;;2.67;1.90;;;;;;;;;;4960813;29;20034;-76
2023/09/05 10:26:19;;;;;;;2.33;1.90;;;;;;;;;;4961000;28;20023;-76
2023/09/05 10:28:47;;;;;;;2.42;1.60;;;;;;;;;;4960855;29;20058;-76
2023/09/05 10:31:13;;;;;;;2.50;1.50;;;;;;;;;;4959394;28;20417;-92
2023/09/05 10:33:40;;;;;;;2.10;1.40;;;;;;;;;;4961807;28;20155;-90
2023/09/05 10:36:06;;;;;;;4.03;1.80;;;;;;;;;;4960506;29;20066;-91
2023/09/05 10:38:38;;;;;;;1.60;1.50;;;;;;;;;;4960400;29;20046;-91
2023/09/05 10:41:04;;;;;;;2.42;1.85;;;;;;;;;;4960719;29;20143;-92
2023/09/05 10:43:30;;;;;;;2.83;1.70;;;;;;;;;;4959751;29;20030;-91
2023/09/05 10:46:00;;;;;;;3.08;1.50;;;;;;;;;;4960223;28;20027;-90
2023/09/05 10:48:37;;;;;;;4.65;1.73;;;;;;;;;;4960455;29;20311;-90
2023/09/05 10:51:13;;;;;;;3.65;1.48;;;;;;;;;;4960246;29;20039;-91
2023/09/05 10:53:43;;;;;;;2.60;1.98;;;;;;;;;;4960152;29;20051;-92
2023/09/05 10:56:48;;;;;;;3.38;1.67;;;;;;;;;;4961170;29;20027;-91
2023/09/05 10:59:26;;;;;;;1.88;1.77;;;;;;;;;;4921369;29;20351;-91
2023/09/05 11:01:56;;;;;;;2.03;1.80;;;;;;;;;;4921299;29;20024;-92
2023/09/05 11:04:26;;;;;;;2.20;2.00;;;;;;;;;;4926631;29;20036;-96
2023/09/05 11:06:56;;;;;;;2.55;1.80;;;;;;;;;;4908815;29;20115;-96
2023/09/05 11:09:24;;;;;;;3.33;1.88;;;;;;;;;;4913032;29;20065;-96
2023/09/05 11:11:51;;;;;;;5.00;1.90;;;;;;;;;;4915167;29;20032;-96
2023/09/05 11:14:28;;;;;;;4.03;2.00;;;;;;;;;;4908901;29;20033;-95
2023/09/05 11:16:56;;;;;;;3.85;2.40;;;;;;;;;;4889125;29;20048;-96
2023/09/05 11:19:32;;;;;;;3.40;2.00;;;;;;;;;;4899723;29;20088;-94
2023/09/05 11:22:18;;;;;;;5.07;2.17;;;;;;;;;;4899831;29;20040;-95
2023/09/05 11:24:49;;;;;;;5.43;1.95;;;;;;;;;;4913720;29;20048;-96
2023/09/05 11:27:28;;;;;;;2.38;1.67;;;;;;;;;;4918253;29;20036;-96
2023/09/05 11:29:59;;;;;;;4.70;2.10;;;;;;;;;;4935659;29;20092;-96
2023/09/05 11:32:30;;;;;;;3.67;2.00;;;;;;;;;;4956446;29;20024;-95
2023/09/05 11:34:56;;;;;;;3.53;2.35;;;;;;;;;;4955823;29;20032;-96
2023/09/05 11:37:22;;;;;;;5.72;2.40;;;;;;;;;;4953432;29;20023;-95
2023/09/05 11:40:08;;;;;;;4.60;2.05;;;;;;;;;;4953894;29;20127;-96
2023/09/05 11:42:43;;;;;;;4.30;1.90;;;;;;;;;;4961139;28;20094;-96
2023/09/05 11:45:35;;;;;;;3.70;1.98;;;;;;;;;;4948097;29;20023;-95
2023/09/05 11:48:04;;;;;;;5.75;2.17;;;;;;;;;;4972536;29;20075;-95
2023/09/05 11:50:43;;;;;;;3.33;2.15;;;;;;;;;;4976580;29;20038;-95
2023/09/05 11:53:13;;;;;;;4.43;2.28;;;;;;;;;;4974566;28;20058;-96
2023/09/05 11:55:46;;;;;;;3.25;2.28;;;;;;;;;;4977743;28;20034;-96
2023/09/05 11:58:26;;;;;;;3.95;2.22;;;;;;;;;;4978476;29;20047;-96
2023/09/05 12:00:54;;;;;;;4.25;2.25;;;;;;;;;;4973455;28;20091;-95
2023/09/05 12:03:58;;;;;;;3.90;2.55;;;;;;;;;;4964721;28;20091;-96
2023/09/05 12:14:20;;;;;;;4.95;2.00;;;;;;;;;;5142196;23;20046;-95
2023/09/05 12:19:39;;;;;;;3.42;2.03;;;;;;;;;;5974155;23;20070;-96
2023/09/05 12:22:16;;;;;;;14.45;2.30;;;;;;;;;;4970424;28;20050;-95
2023/09/05 12:24:43;;;;;;;2.67;1.98;;;;;;;;;;4973177;28;20426;-93
2023/09/05 12:27:35;;;;;;;4.57;2.25;;;;;;;;;;4957779;29;20143;-96
2023/09/05 12:30:30;;;;;;;4.63;2.40;;;;;;;;;;5027110;23;20030;-95
2023/09/05 12:35:39;;;;;;;3.30;2.42;;;;;;;;;;5199874;23;20054;-91
2023/09/05 12:38:07;;;;;;;2.90;2.28;;;;;;;;;;4996857;28;20022;-91
2023/09/05 12:40:35;;;;;;;3.05;2.05;;;;;;;;;;4997761;28;20105;-88
2023/09/05 12:43:08;;;;;;;2.88;2.20;;;;;;;;;;5001072;28;20011;-96
2023/09/05 12:45:34;;;;;;;5.20;2.13;;;;;;;;;;4998554;28;20109;-94
2023/09/05 12:48:00;;;;;;;2.00;1.77;;;;;;;;;;4996622;28;20030;-94
2023/09/05 12:50:32;;;;;;;4.53;2.25;;;;;;;;;;4988970;28;20145;-94
2023/09/05 12:53:01;;;;;;;2.05;1.85;;;;;;;;;;4998156;28;20364;-94
2023/09/05 12:58:30;;;;;;;5.03;1.90;;;;;;;;;;5002186;28;20041;-95
2023/09/05 13:00:56;;;;;;;2.47;2.10;;;;;;;;;;4988133;28;20102;-95
2023/09/05 13:03:22;;;;;;;2.20;1.90;;;;;;;;;;4983853;28;20030;-95
2023/09/05 13:05:51;;;;;;;2.00;1.80;;;;;;;;;;4982545;28;20027;-96
2023/09/05 13:08:18;;;;;;;2.97;2.20;;;;;;;;;;4984526;28;20035;-96
2023/09/05 13:13:47;;;;;;;4.35;1.90;;;;;;;;;;4983548;28;20045;-95
2023/09/05 13:16:14;;;;;;;3.58;2.00;;;;;;;;;;4997312;28;20026;-96
2023/09/05 13:18:41;;;;;;;2.78;2.15;;;;;;;;;;5002146;28;20471;-95
2023/09/05 13:21:07;;;;;;;2.88;1.88;;;;;;;;;;5003086;28;20026;-94
2023/09/05 13:23:33;;;;;;;2.33;1.80;;;;;;;;;;5001515;28;20018;-95
2023/09/05 13:26:03;;;;;;;3.22;2.10;;;;;;;;;;4988468;28;20345;-95
2023/09/05 13:28:29;;;;;;;4.18;2.22;;;;;;;;;;4990637;28;20026;-95
2023/09/05 13:30:56;;;;;;;4.50;2.30;;;;;;;;;;5001626;28;20030;-93
2023/09/05 13:33:22;;;;;;;4.07;2.13;;;;;;;;;;5001635;28;20493;-94
2023/09/05 13:35:48;;;;;;;3.95;2.35;;;;;;;;;;4988495;28;20086;-91
2023/09/05 13:38:19;;;;;;;2.03;1.80;;;;;;;;;;4984793;28;20417;-91
2023/09/05 13:40:48;;;;;;;3.55;2.10;;;;;;;;;;4982113;28;20313;-91
2023/09/05 13:43:14;;;;;;;2.90;1.88;;;;;;;;;;4980733;28;20046;-91
2023/09/05 13:45:40;;;;;;;5.53;2.10;;;;;;;;;;4982104;28;20023;-91
2023/09/05 13:48:07;;;;;;;6.18;2.42;;;;;;;;;;4981943;28;20027;-91
2023/09/05 13:50:33;;;;;;;6.80;2.72;;;;;;;;;;4985164;28;20035;-94
2023/09/05 13:52:59;;;;;;;4.95;2.47;;;;;;;;;;5000416;28;20113;-93
2023/09/05 13:55:44;;;;;;;3.90;2.58;;;;;;;;;;5001992;28;20042;-93
2023/09/05 13:58:10;;;;;;;4.68;2.50;;;;;;;;;;4996564;28;20023;-91
2023/09/05 14:00:36;;;;;;;4.03;2.70;;;;;;;;;;4981726;28;20030;-86
2023/09/05 14:03:02;;;;;;;8.57;2.75;;;;;;;;;;4982635;28;20161;-86
2023/09/05 14:05:28;;;;;;;4.50;2.78;;;;;;;;;;4979602;28;20035;-85
2023/09/05 14:07:54;;;;;;;7.78;2.50;;;;;;;;;;4981469;28;20019;-85
2023/09/05 14:10:20;;;;;;;3.75;2.00;;;;;;;;;;4992785;28;20100;-85
2023/09/05 14:12:46;;;;;;;2.25;2.00;;;;;;;;;;4982521;28;20034;-86
2023/09/05 14:15:12;;;;;;;3.90;2.20;;;;;;;;;;4980315;28;20035;-85
2023/09/05 14:17:38;;;;;;;2.95;2.38;;;;;;;;;;4982364;28;20077;-85
2023/09/05 14:20:06;;;;;;;5.13;2.47;;;;;;;;;;5000629;28;20030;-85
2023/09/05 14:22:32;;;;;;;10.02;3.35;;;;;;;;;;5000381;28;20027;-85
2023/09/05 14:24:59;;;;;;;5.57;2.10;;;;;;;;;;5000743;28;20033;-85
2023/09/05 14:27:26;;;;;;;6.20;2.40;;;;;;;;;;5000505;28;20420;-85
2023/09/05 14:29:52;;;;;;;2.75;2.20;;;;;;;;;;4981255;28;20042;-85
2023/09/05 14:32:18;;;;;;;6.20;2.53;;;;;;;;;;4979856;28;20508;-85
2023/09/05 14:34:44;;;;;;;7.13;2.28;;;;;;;;;;4978072;28;20042;-92
2023/09/05 14:37:10;;;;;;;7.65;2.45;;;;;;;;;;4979897;28;20041;-92
2023/09/05 14:39:36;;;;;;;3.47;2.40;;;;;;;;;;4993573;28;20027;-92
2023/09/05 14:42:02;;;;;;;3.88;2.25;;;;;;;;;;4960714;29;20311;-90
2023/09/05 14:44:28;;;;;;;3.53;2.22;;;;;;;;;;4961853;28;20421;-89
2023/09/05 14:46:54;;;;;;;5.10;2.20;;;;;;;;;;4980616;28;20424;-90
2023/09/05 14:49:21;;;;;;;6.75;2.60;;;;;;;;;;4979682;28;20118;-91
2023/09/05 14:51:47;;;;;;;6.22;2.40;;;;;;;;;;4979581;28;20085;-90
2023/09/05 14:54:13;;;;;;;3.67;2.25;;;;;;;;;;4960309;28;20114;-92
2023/09/05 14:56:40;;;;;;;5.07;2.50;;;;;;;;;;4961268;28;20024;-91
2023/09/05 14:59:06;;;;;;;5.00;2.17;;;;;;;;;;4961240;28;20106;-92
2023/09/05 15:01:32;;;;;;;4.13;2.80;;;;;;;;;;4968182;28;20018;-91
2023/09/05 15:03:58;;;;;;;2.60;2.22;;;;;;;;;;4980996;28;20035;-92
2023/09/05 15:06:24;;;;;;;2.38;2.10;;;;;;;;;;4981474;28;20084;-93
2023/09/05 15:08:51;;;;;;;5.20;2.33;;;;;;;;;;4979539;28;20035;-93
2023/09/05 15:11:17;;;;;;;3.60;2.10;;;;;;;;;;4980515;28;20050;-90
2023/09/05 15:13:44;;;;;;;4.03;2.30;;;;;;;;;;4980502;28;20033;-90
2023/09/05 15:16:10;;;;;;;3.33;2.20;;;;;;;;;;4981048;28;20093;-91
2023/09/05 15:18:37;;;;;;;4.47;2.58;;;;;;;;;;4999038;28;20026;-88
2023/09/05 15:21:03;;;;;;;4.72;2.22;;;;;;;;;;4998531;28;20025;-90
2023/09/05 15:23:29;;;;;;;4.13;2.88;;;;;;;;;;4998601;28;20109;-92
2023/09/05 15:25:55;;;;;;;7.55;2.75;;;;;;;;;;4998594;28;20030;-90
2023/09/05 15:28:22;;;;;;;6.15;3.47;;;;;;;;;;4979290;28;20038;-89
2023/09/05 15:30:48;;;;;;;5.25;2.72;;;;;;;;;;4978963;28;20043;-91
2023/09/05 15:33:14;;;;;;;4.90;2.55;;;;;;;;;;4978646;28;20468;-90
2023/09/05 15:35:40;;;;;;;13.40;3.05;;;;;;;;;;4978202;28;20051;-90
2023/09/05 15:38:06;;;;;;;11.93;2.78;;;;;;;;;;4978721;28;20026;-90
2023/09/05 15:41:09;;;;;;;7.10;2.70;;;;;;;;;;4980071;28;20019;-92
2023/09/05 15:43:35;;;;;;;3.83;2.75;;;;;;;;;;4978391;28;20023;-89
2023/09/05 15:46:01;;;;;;;7.38;2.30;;;;;;;;;;4978810;28;20031;-88
2023/09/05 15:48:29;;;;;;;3.30;2.47;;;;;;;;;;4979911;28;20465;-93
2023/09/05 15:50:55;;;;;;;4.55;2.42;;;;;;;;;;4979393;28;20030;-91
2023/09/05 15:53:22;;;;;;;7.65;2.80;;;;;;;;;;4979809;28;20025;-91
2023/09/05 15:55:50;;;;;;;18.23;3.53;;;;;;;;;;4978591;28;20113;-92
2023/09/05 15:58:16;;;;;;;5.03;2.63;;;;;;;;;;4979448;28;20106;-92
2023/09/05 16:00:43;;;;;;;10.15;2.90;;;;;;;;;;4981988;28;20026;-81
2023/09/05 16:03:09;;;;;;;7.43;2.58;;;;;;;;;;4998178;28;20027;-81
2023/09/05 16:05:35;;;;;;;4.18;2.20;;;;;;;;;;4997151;28;20333;-81
2023/09/05 16:08:01;;;;;;;7.50;2.30;;;;;;;;;;4996987;28;20177;-81
2023/09/05 16:10:27;;;;;;;6.97;2.63;;;;;;;;;;4998094;28;20030;-81
2023/09/05 16:12:53;;;;;;;6.82;2.28;;;;;;;;;;4998148;28;20022;-81
2023/09/05 16:15:19;;;;;;;8.13;2.53;;;;;;;;;;4997961;28;20031;-81
2023/09/05 16:17:45;;;;;;;4.13;2.55;;;;;;;;;;4996916;28;20022;-81
2023/09/05 16:20:11;;;;;;;4.47;2.25;;;;;;;;;;4988913;28;20023;-81
2023/09/05 16:22:38;;;;;;;2.97;2.13;;;;;;;;;;4978636;28;20034;-81
2023/09/05 16:25:04;;;;;;;6.30;2.28;;;;;;;;;;4978497;28;20050;-81
2023/09/05 16:27:32;;;;;;;4.80;2.25;;;;;;;;;;4979125;28;20027;-81
2023/09/05 16:29:58;;;;;;;3.78;2.33;;;;;;;;;;4978208;28;20039;-81
2023/09/05 16:32:24;;;;;;;8.50;2.88;;;;;;;;;;4973253;28;20035;-81
2023/09/05 16:34:56;;;;;;;8.25;2.38;;;;;;;;;;4983139;28;20081;-81
2023/09/05 16:37:22;;;;;;;8.32;2.78;;;;;;;;;;4980277;28;20026;-81
2023/09/05 16:39:51;;;;;;;7.53;3.05;;;;;;;;;;4984279;28;20051;-80
2023/09/05 16:42:17;;;;;;;4.28;2.38;;;;;;;;;;4993988;28;20081;-80
2023/09/05 16:44:43;;;;;;;3.55;2.38;;;;;;;;;;4982179;28;20434;-80
2023/09/05 16:47:09;;;;;;;3.38;2.40;;;;;;;;;;4997633;28;20033;-81
2023/09/05 16:49:39;;;;;;;6.60;2.55;;;;;;;;;;4980623;28;20034;-81
2023/09/05 16:52:06;;;;;;;12.18;2.53;;;;;;;;;;4978153;28;20110;-80
2023/09/05 16:54:32;;;;;;;3.05;2.53;;;;;;;;;;4978106;28;20022;-81
2023/09/05 16:56:58;;;;;;;9.05;2.72;;;;;;;;;;4977875;28;20026;-80
2023/09/05 16:59:24;;;;;;;10.38;2.40;;;;;;;;;;4987019;28;20069;-81
2023/09/05 17:01:50;;;;;;;11.63;2.58;;;;;;;;;;4979709;28;20046;-80
2023/09/05 17:04:18;;;;;;;7.15;2.25;;;;;;;;;;4983831;28;20026;-80
2023/09/05 17:06:44;;;;;;;4.63;2.47;;;;;;;;;;4997075;28;20476;-81
2023/09/05 17:09:10;;;;;;;5.68;2.50;;;;;;;;;;4996446;28;20030;-81
2023/09/05 17:11:36;;;;;;;8.10;3.08;;;;;;;;;;4979308;28;20102;-81